createdAt,value
2017-05-25T00:01:27.904Z,82.80
2017-05-25T00:03:55.062Z,82.10
2017-05-25T00:06:22.260Z,82.90
2017-05-25T00:08:49.408Z,83.30
2017-05-25T00:11:16.545Z,84.30
2017-05-25T00:13:43.897Z,83.60
2017-05-25T00:16:11.047Z,83.50
2017-05-25T00:18:38.172Z,83.10
2017-05-25T00:21:05.362Z,83.50
2017-05-25T00:23:32.516Z,85.10
2017-05-25T00:25:59.649Z,84.20
2017-05-25T00:28:26.928Z,85.10
2017-05-25T00:30:54.101Z,84.30
2017-05-25T00:33:21.249Z,84.40
2017-05-25T00:35:48.428Z,84.70
2017-05-25T00:38:15.591Z,85.30
2017-05-25T00:40:42.741Z,84.90
2017-05-25T00:43:09.921Z,85.80
2017-05-25T00:45:37.076Z,85.70
2017-05-25T00:48:04.232Z,85.90
2017-05-25T00:50:31.408Z,85.20
2017-05-25T00:52:58.557Z,84.20
2017-05-25T00:55:25.724Z,84.90
2017-05-25T00:57:52.981Z,85.20
2017-05-25T01:00:20.130Z,84.60
2017-05-25T01:02:47.264Z,85.30
2017-05-25T01:05:14.480Z,85.70
2017-05-25T01:07:41.633Z,85.50
2017-05-25T01:10:08.780Z,86.20
2017-05-25T01:12:35.953Z,85.90
2017-05-25T01:15:03.105Z,86.20
2017-05-25T01:17:30.264Z,87.40
2017-05-25T01:19:57.470Z,86.50
2017-05-25T01:22:24.646Z,85.90
2017-05-25T01:24:51.794Z,83.70
2017-05-25T01:27:18.973Z,84.70
2017-05-25T01:29:46.121Z,84.00
2017-05-25T01:32:13.285Z,84.00
2017-05-25T01:34:40.476Z,83.70
2017-05-25T01:37:07.652Z,84.90
2017-05-25T01:39:34.805Z,84.70
2017-05-25T01:42:02.017Z,83.50
2017-05-25T01:44:29.189Z,83.30
2017-05-25T01:46:56.362Z,83.80
2017-05-25T01:49:23.552Z,83.50
2017-05-25T01:51:50.717Z,84.00
2017-05-25T01:54:17.875Z,84.40
2017-05-25T01:56:45.080Z,84.40
2017-05-25T01:59:12.230Z,85.10
2017-05-25T02:01:39.388Z,85.00
2017-05-25T02:04:06.858Z,85.90
2017-05-25T02:06:34.005Z,85.00
2017-05-25T02:09:01.153Z,85.60
2017-05-25T02:11:28.317Z,84.80
2017-05-25T02:13:55.465Z,85.40
2017-05-25T02:16:22.613Z,85.70
2017-05-25T02:18:49.788Z,85.60
2017-05-25T02:21:16.946Z,85.80
2017-05-25T02:23:44.069Z,86.20
2017-05-25T02:26:11.605Z,86.10
2017-05-25T02:28:38.738Z,86.30
2017-05-25T02:31:05.885Z,86.10
2017-05-25T02:33:33.054Z,84.50
2017-05-25T02:36:00.197Z,81.10
2017-05-25T02:38:27.328Z,81.10
2017-05-25T02:40:54.537Z,81.60
2017-05-25T02:43:21.670Z,81.70
2017-05-25T02:45:48.809Z,80.50
2017-05-25T02:48:15.993Z,82.50
2017-05-25T02:50:43.149Z,83.60
2017-05-25T02:53:10.290Z,84.30
2017-05-25T02:55:37.480Z,84.10
2017-05-25T02:58:04.633Z,85.20
2017-05-25T03:00:31.809Z,85.20
2017-05-25T03:02:58.989Z,85.60
2017-05-25T03:05:26.121Z,85.70
2017-05-25T03:07:53.269Z,86.00
2017-05-25T03:10:20.570Z,86.00
2017-05-25T03:12:47.725Z,85.40
2017-05-25T03:15:14.867Z,85.50
2017-05-25T03:17:42.057Z,85.00
2017-05-25T03:20:09.192Z,86.40
2017-05-25T03:22:36.337Z,86.00
2017-05-25T03:25:03.631Z,86.20
2017-05-25T03:27:30.777Z,86.50
2017-05-25T03:29:57.914Z,86.40
2017-05-25T03:32:25.093Z,87.00
2017-05-25T03:34:52.239Z,85.60
2017-05-25T03:37:19.387Z,86.60
2017-05-25T03:39:46.586Z,87.40
2017-05-25T03:42:13.795Z,86.40
2017-05-25T03:44:40.948Z,86.90
2017-05-25T03:47:08.118Z,87.00
2017-05-25T03:49:35.269Z,86.60
2017-05-25T03:52:02.406Z,86.90
2017-05-25T03:54:29.581Z,86.00
2017-05-25T03:56:56.737Z,85.80
2017-05-25T03:59:23.890Z,86.30
2017-05-25T04:01:51.072Z,86.20
2017-05-25T04:04:18.210Z,86.30
2017-05-25T04:06:45.357Z,86.90
2017-05-25T04:09:12.541Z,86.40
2017-05-25T04:11:39.693Z,87.00
2017-05-25T04:14:06.849Z,87.50
2017-05-25T04:16:34.036Z,86.70
2017-05-25T04:19:01.172Z,86.90
2017-05-25T04:21:28.332Z,86.30
2017-05-25T04:23:55.612Z,84.90
2017-05-25T04:26:22.745Z,85.60
2017-05-25T04:28:49.873Z,85.50
2017-05-25T04:31:17.059Z,85.30
2017-05-25T04:33:44.203Z,84.80
2017-05-25T04:36:11.344Z,83.70
2017-05-25T04:38:38.518Z,84.70
2017-05-25T04:41:05.680Z,84.30
2017-05-25T04:43:32.859Z,83.30
2017-05-25T04:46:00.148Z,83.50
2017-05-25T04:48:27.289Z,84.20
2017-05-25T04:50:54.444Z,83.60
2017-05-25T04:53:21.712Z,81.90
2017-05-25T04:55:48.832Z,80.40
2017-05-25T04:58:15.972Z,82.00
2017-05-25T05:00:43.254Z,82.80
2017-05-25T05:03:10.488Z,82.30
2017-05-25T05:05:37.632Z,81.30
2017-05-25T05:08:04.854Z,79.20
2017-05-25T05:10:32.079Z,80.70
2017-05-25T05:12:59.469Z,81.40
2017-05-25T05:15:26.645Z,81.50
2017-05-25T05:17:53.781Z,81.70
2017-05-25T05:20:21.041Z,81.00
2017-05-25T05:22:48.222Z,81.30
2017-05-25T05:25:15.374Z,81.60
2017-05-25T05:27:42.593Z,81.30
2017-05-25T05:30:09.756Z,78.90
2017-05-25T05:32:36.918Z,77.50
2017-05-25T05:35:04.109Z,77.70
2017-05-25T05:37:31.273Z,78.10
2017-05-25T05:39:58.429Z,76.90
2017-05-25T05:42:25.599Z,76.60
2017-05-25T05:44:52.761Z,77.40
2017-05-25T05:47:19.902Z,78.80
2017-05-25T05:49:47.105Z,77.70
2017-05-25T05:52:14.696Z,75.90
2017-05-25T05:54:41.932Z,77.10
2017-05-25T05:57:09.130Z,75.50
2017-05-25T05:59:36.300Z,74.00
2017-05-25T06:02:03.468Z,71.80
2017-05-25T06:04:30.650Z,67.50
2017-05-25T06:06:57.992Z,69.10
2017-05-25T06:09:25.292Z,68.10
2017-05-25T06:11:52.620Z,64.00
2017-05-25T06:14:19.816Z,66.10
2017-05-25T06:16:47.063Z,64.00
2017-05-25T06:19:14.257Z,59.20
2017-05-25T06:21:41.398Z,60.80
2017-05-25T06:24:08.669Z,59.00
2017-05-25T06:26:35.855Z,58.50
2017-05-25T06:29:03.004Z,59.90
2017-05-25T06:31:30.210Z,57.80
2017-05-25T06:33:57.393Z,58.40
2017-05-25T06:36:24.564Z,59.50
2017-05-25T06:38:51.817Z,58.10
2017-05-25T06:41:19.017Z,57.70
2017-05-25T06:43:46.190Z,58.70
2017-05-25T06:46:13.393Z,57.00
2017-05-25T06:48:40.617Z,58.30
2017-05-25T06:51:07.796Z,57.10
2017-05-25T06:53:34.989Z,56.40
2017-05-25T06:56:02.175Z,56.40
2017-05-25T06:58:29.313Z,56.80
2017-05-25T07:00:56.497Z,55.90
2017-05-25T07:03:23.640Z,56.40
2017-05-25T07:05:50.795Z,57.00
2017-05-25T07:08:18.006Z,56.20
2017-05-25T07:10:45.133Z,54.80
2017-05-25T07:13:12.252Z,56.00
2017-05-25T07:15:39.451Z,55.10
2017-05-25T07:18:06.560Z,54.60
2017-05-25T07:20:33.693Z,54.60
2017-05-25T07:23:00.857Z,54.20
2017-05-25T07:25:27.978Z,54.00
2017-05-25T07:27:55.089Z,54.20
2017-05-25T07:30:22.253Z,54.50
2017-05-25T07:32:49.356Z,54.30
2017-05-25T07:35:16.460Z,55.20
2017-05-25T07:37:43.629Z,54.10
2017-05-25T07:40:10.764Z,52.50
2017-05-25T07:42:37.865Z,52.20
2017-05-25T07:45:05.042Z,49.50
2017-05-25T07:47:32.354Z,49.20
2017-05-25T07:49:59.497Z,51.10
2017-05-25T07:52:26.933Z,51.20
2017-05-25T07:54:54.065Z,50.40
2017-05-25T07:57:21.189Z,48.90
2017-05-25T07:59:48.345Z,51.70
2017-05-25T08:02:15.482Z,47.40
2017-05-25T08:04:42.597Z,49.50
2017-05-25T08:07:09.748Z,50.30
2017-05-25T08:09:51.833Z,48.90
2017-05-25T08:12:19.059Z,49.70
2017-05-25T08:14:46.177Z,47.30
2017-05-25T08:17:13.312Z,46.10
2017-05-25T08:19:40.564Z,48.30
2017-05-25T08:22:07.686Z,45.90
2017-05-25T08:24:34.818Z,45.50
2017-05-25T08:27:01.993Z,47.20
2017-05-25T08:29:29.124Z,49.80
2017-05-25T08:31:56.247Z,47.20
2017-05-25T08:34:23.409Z,46.80
2017-05-25T08:36:50.536Z,46.90
2017-05-25T08:39:17.670Z,48.90
2017-05-25T08:41:44.838Z,46.80
2017-05-25T08:44:11.996Z,47.90
2017-05-25T08:46:39.108Z,45.50
2017-05-25T08:49:06.360Z,44.20
2017-05-25T08:51:33.478Z,43.30
2017-05-25T08:54:00.616Z,44.80
2017-05-25T08:56:27.872Z,44.20
2017-05-25T08:58:55.241Z,43.70
2017-05-25T09:01:22.648Z,44.10
2017-05-25T09:03:49.862Z,45.00
2017-05-25T09:06:16.985Z,43.70
2017-05-25T09:08:44.095Z,42.10
2017-05-25T09:11:11.420Z,42.00
2017-05-25T09:13:38.614Z,42.50
2017-05-25T09:16:05.751Z,46.30
2017-05-25T09:18:32.910Z,45.20
2017-05-25T09:21:00.057Z,43.10
2017-05-25T09:23:27.178Z,44.70
2017-05-25T09:25:54.349Z,43.80
2017-05-25T09:28:21.457Z,45.50
2017-05-25T09:30:48.576Z,41.20
2017-05-25T09:33:15.726Z,43.30
2017-05-25T09:35:42.881Z,44.00
2017-05-25T09:38:10.012Z,39.80
2017-05-25T09:40:37.201Z,43.60
2017-05-25T09:43:04.329Z,42.80
2017-05-25T09:45:31.448Z,41.80
2017-05-25T09:47:58.604Z,41.00
2017-05-25T09:50:25.736Z,40.70
2017-05-25T09:52:52.935Z,40.60
2017-05-25T09:55:20.057Z,38.20
2017-05-25T09:57:47.472Z,37.20
2017-05-25T10:00:14.704Z,43.40
2017-05-25T10:02:42.025Z,39.90
2017-05-25T10:05:09.181Z,44.30
2017-05-25T10:07:36.342Z,38.90
2017-05-25T10:10:03.489Z,38.00
2017-05-25T10:12:30.721Z,37.80
2017-05-25T10:14:57.889Z,38.00
2017-05-25T10:17:25.020Z,37.30
2017-05-25T10:19:52.169Z,38.60
2017-05-25T10:22:19.272Z,37.80
2017-05-25T10:24:46.393Z,42.60
2017-05-25T10:27:13.560Z,40.40
2017-05-25T10:29:40.719Z,41.30
2017-05-25T10:32:07.821Z,42.20
2017-05-25T10:34:34.989Z,41.70
2017-05-25T10:37:02.101Z,40.80
2017-05-25T10:39:29.220Z,35.80
2017-05-25T10:41:56.409Z,35.40
2017-05-25T10:44:23.524Z,37.90
2017-05-25T10:46:50.643Z,36.00
2017-05-25T10:49:17.792Z,34.70
2017-05-25T10:51:44.928Z,33.30
2017-05-25T10:54:12.041Z,35.00
2017-05-25T10:56:39.202Z,37.20
2017-05-25T10:59:06.364Z,35.90
2017-05-25T11:01:40.490Z,34.90
2017-05-25T11:04:07.609Z,38.60
2017-05-25T11:06:34.759Z,34.40
2017-05-25T11:09:01.916Z,36.10
2017-05-25T11:11:29.037Z,33.20
2017-05-25T11:13:56.234Z,32.50
2017-05-25T11:16:23.360Z,33.60
2017-05-25T11:18:50.473Z,30.40
2017-05-25T11:21:17.625Z,34.20
2017-05-25T11:23:44.743Z,36.80
2017-05-25T11:26:11.992Z,32.00
2017-05-25T11:28:39.121Z,34.00
2017-05-25T11:31:06.248Z,30.80
2017-05-25T11:33:33.483Z,30.00
2017-05-25T11:36:00.589Z,30.20
2017-05-25T11:38:27.710Z,31.10
2017-05-25T11:40:54.875Z,30.00
2017-05-25T11:43:21.972Z,32.90
2017-05-25T11:45:49.092Z,29.50
2017-05-25T11:48:16.229Z,32.20
2017-05-25T11:50:43.354Z,28.60
2017-05-25T11:53:10.469Z,31.30
2017-05-25T11:55:37.624Z,29.30
2017-05-25T11:58:04.766Z,33.10
2017-05-25T12:00:31.880Z,30.60
2017-05-25T12:02:59.058Z,30.00
2017-05-25T12:05:26.161Z,26.50
2017-05-25T12:07:53.305Z,27.70
2017-05-25T12:10:20.417Z,27.20
2017-05-25T12:12:47.564Z,27.20
2017-05-25T12:15:14.716Z,30.60
2017-05-25T12:17:41.836Z,25.80
2017-05-25T12:20:08.989Z,31.90
2017-05-25T12:22:36.119Z,28.60
2017-05-25T12:25:03.237Z,29.30
2017-05-25T12:27:30.377Z,30.80
2017-05-25T12:29:57.496Z,33.30
2017-05-25T12:32:24.649Z,28.10
2017-05-25T12:34:51.764Z,31.30
2017-05-25T12:37:18.889Z,31.70
2017-05-25T12:39:46.048Z,29.40
2017-05-25T12:42:13.237Z,29.70
2017-05-25T12:44:40.725Z,28.50
2017-05-25T12:47:07.880Z,28.10
2017-05-25T12:49:35.390Z,27.00
2017-05-25T12:52:02.656Z,29.70
2017-05-25T12:54:29.891Z,28.80
2017-05-25T12:56:57.009Z,28.20
2017-05-25T12:59:24.172Z,30.50
2017-05-25T13:01:51.304Z,29.00
2017-05-25T13:04:18.428Z,25.10
2017-05-25T13:06:45.688Z,23.20
2017-05-25T13:09:13.091Z,21.10
2017-05-25T13:11:40.294Z,22.00
2017-05-25T13:14:07.486Z,22.20
2017-05-25T13:16:34.592Z,22.60
2017-05-25T13:19:01.718Z,23.40
2017-05-25T13:21:28.884Z,27.20
2017-05-25T13:23:56.030Z,26.20
2017-05-25T13:26:23.181Z,23.80
2017-05-25T13:28:50.353Z,21.80
2017-05-25T13:31:17.536Z,23.00
2017-05-25T13:33:44.712Z,23.30
2017-05-25T13:36:11.889Z,25.40
2017-05-25T13:38:39.012Z,23.50
2017-05-25T13:41:06.173Z,21.70
2017-05-25T13:43:33.348Z,23.60
2017-05-25T13:46:00.866Z,24.60
2017-05-25T13:48:28.057Z,23.90
2017-05-25T13:50:55.197Z,24.30
2017-05-25T13:53:22.306Z,22.80
2017-05-25T13:55:49.458Z,24.20
2017-05-25T13:58:16.567Z,25.50
2017-05-25T14:00:43.758Z,28.10
2017-05-25T14:03:10.909Z,28.60
2017-05-25T14:05:38.032Z,34.20
2017-05-25T14:08:05.309Z,28.60
2017-05-25T14:10:32.472Z,34.90
2017-05-25T14:12:59.596Z,32.20
2017-05-25T14:15:26.744Z,33.20
2017-05-25T14:17:53.863Z,31.70
2017-05-25T14:20:21.000Z,29.60
2017-05-25T14:22:48.145Z,30.00
2017-05-25T14:25:15.246Z,26.40
2017-05-25T14:27:42.371Z,29.50
2017-05-25T14:30:09.526Z,27.00
2017-05-25T14:32:36.644Z,28.00
2017-05-25T14:35:03.742Z,32.40
2017-05-25T14:37:30.878Z,31.90
2017-05-25T14:39:58.013Z,36.90
2017-05-25T14:42:25.189Z,36.80
2017-05-25T14:44:52.304Z,31.40
2017-05-25T14:47:19.421Z,34.20
2017-05-25T14:49:46.573Z,37.50
2017-05-25T14:52:13.705Z,32.60
2017-05-25T14:54:40.826Z,33.60
2017-05-25T14:57:07.989Z,33.30
2017-05-25T14:59:35.103Z,32.70
2017-05-25T15:02:02.225Z,34.00
2017-05-25T15:04:29.389Z,32.40
2017-05-25T15:06:56.552Z,32.80
2017-05-25T15:09:23.672Z,33.00
2017-05-25T15:11:50.835Z,32.90
2017-05-25T15:14:18.000Z,32.70
2017-05-25T15:16:45.119Z,32.00
2017-05-25T15:19:12.221Z,31.80
2017-05-25T15:21:39.368Z,32.30
2017-05-25T15:24:06.472Z,31.90
2017-05-25T15:27:03.289Z,31.80
2017-05-25T15:29:30.362Z,32.10
2017-05-25T15:34:14.113Z,32.00
2017-05-25T15:38:12.994Z,30.30
2017-05-25T15:40:40.148Z,29.60
2017-05-25T15:43:07.230Z,29.00
2017-05-25T15:45:34.296Z,28.30
2017-05-25T15:48:01.404Z,30.00
2017-05-25T15:50:28.472Z,27.40
2017-05-25T15:52:55.533Z,29.00
2017-05-25T15:55:22.637Z,30.40
2017-05-25T15:57:49.717Z,30.70
2017-05-25T16:00:16.813Z,28.70
2017-05-25T16:02:43.980Z,30.20
2017-05-25T16:05:11.056Z,31.80
2017-05-25T16:07:38.122Z,31.10
2017-05-25T16:10:05.240Z,33.80
2017-05-25T16:12:32.337Z,32.60
2017-05-25T16:14:59.381Z,30.50
2017-05-25T16:17:26.491Z,32.50
2017-05-25T16:19:53.583Z,32.90
2017-05-25T16:22:20.651Z,31.30
2017-05-25T16:24:47.769Z,31.80
2017-05-25T16:27:14.848Z,32.40
2017-05-25T16:29:41.930Z,32.30
2017-05-25T16:32:09.041Z,32.40
2017-05-25T16:34:36.120Z,32.00
2017-05-25T16:37:03.188Z,33.60
2017-05-25T16:39:30.293Z,36.30
2017-05-25T16:41:57.445Z,33.40
2017-05-25T16:44:24.508Z,33.40
2017-05-25T16:46:51.629Z,33.70
2017-05-25T16:49:18.715Z,34.30
2017-05-25T16:51:45.780Z,35.40
2017-05-25T16:54:12.925Z,35.20
2017-05-25T16:56:39.987Z,35.50
2017-05-25T16:59:07.072Z,37.40
2017-05-25T17:01:34.176Z,36.50
2017-05-25T17:04:01.249Z,37.20
2017-05-25T17:06:28.449Z,35.70
2017-05-25T17:08:55.534Z,37.70
2017-05-25T17:11:22.614Z,38.30
2017-05-25T17:13:49.752Z,36.10
2017-05-25T17:16:16.906Z,36.40
2017-05-25T17:18:43.970Z,37.30
2017-05-25T17:21:11.076Z,38.20
2017-05-25T17:23:38.169Z,38.40
2017-05-25T17:26:05.245Z,41.00
2017-05-25T17:28:32.348Z,38.40
2017-05-25T17:30:59.412Z,37.40
2017-05-25T17:33:26.517Z,40.60
2017-05-25T17:35:53.568Z,39.60
2017-05-25T17:38:20.625Z,40.50
2017-05-25T17:40:47.752Z,40.00
2017-05-25T17:43:14.828Z,40.80
2017-05-25T17:45:41.897Z,39.30
2017-05-25T17:48:08.993Z,39.00
2017-05-25T17:50:36.113Z,41.00
2017-05-25T17:53:03.176Z,41.10
2017-05-25T17:55:30.280Z,42.20
2017-05-25T17:57:57.342Z,40.60
2017-05-25T18:00:24.441Z,41.40
2017-05-25T18:02:51.545Z,40.90
2017-05-25T18:05:18.672Z,42.10
2017-05-25T18:07:45.744Z,41.60
2017-05-25T18:10:12.820Z,41.60
2017-05-25T18:12:40.038Z,42.60
2017-05-25T18:15:07.116Z,42.50
2017-05-25T18:17:34.181Z,42.60
2017-05-25T18:20:01.336Z,44.40
2017-05-25T18:22:28.414Z,41.80
2017-05-25T18:24:55.477Z,44.20
2017-05-25T18:27:22.580Z,42.80
2017-05-25T18:29:49.649Z,43.20
2017-05-25T18:32:16.729Z,43.80
2017-05-25T18:34:43.880Z,41.90
2017-05-25T18:37:10.949Z,42.90
2017-05-25T18:39:38.012Z,43.90
2017-05-25T18:42:05.141Z,45.00
2017-05-25T18:44:32.919Z,44.00
2017-05-25T18:47:00.021Z,42.10
2017-05-25T18:49:27.137Z,46.30
2017-05-25T18:51:54.206Z,47.20
2017-05-25T18:54:21.306Z,47.80
2017-05-25T18:56:48.377Z,48.70
2017-05-25T18:59:15.461Z,48.70
2017-05-25T19:01:42.585Z,48.50
2017-05-25T19:04:09.660Z,49.40
2017-05-25T19:06:36.773Z,48.50
2017-05-25T19:09:03.885Z,45.00
2017-05-25T19:11:30.989Z,47.90
2017-05-25T19:13:58.193Z,49.70
2017-05-25T19:16:25.263Z,49.50
2017-05-25T19:18:52.333Z,50.50
2017-05-25T19:21:19.494Z,51.50
2017-05-25T19:23:46.572Z,44.10
2017-05-25T19:26:13.645Z,46.70
2017-05-25T19:28:40.768Z,49.00
2017-05-25T19:31:07.848Z,50.00
2017-05-25T19:33:34.924Z,51.20
2017-05-25T19:36:02.024Z,52.00
2017-05-25T19:38:29.361Z,52.50
2017-05-25T19:40:56.484Z,52.30
2017-05-25T19:43:30.569Z,52.60
2017-05-25T19:45:57.632Z,52.90
2017-05-25T19:48:24.697Z,54.00
2017-05-25T19:50:51.847Z,53.30
2017-05-25T19:53:19.811Z,54.50
2017-05-25T19:55:47.330Z,54.80
2017-05-25T19:58:14.525Z,54.60
2017-05-25T20:00:41.611Z,54.90
2017-05-25T20:03:08.714Z,55.00
2017-05-25T20:05:35.817Z,55.50
2017-05-25T20:08:02.888Z,55.70
2017-05-25T20:11:11.769Z,55.60
2017-05-25T20:13:38.921Z,56.80
2017-05-25T20:16:06.046Z,56.50
2017-05-25T20:18:33.225Z,56.40
2017-05-25T20:21:00.359Z,56.00
2017-05-25T20:23:27.532Z,57.30
2017-05-25T20:25:54.713Z,57.00
2017-05-25T20:28:21.840Z,57.40
2017-05-25T20:30:48.992Z,57.90
2017-05-25T20:33:16.157Z,58.30
2017-05-25T20:35:43.333Z,59.00
2017-05-25T20:38:10.469Z,58.70
2017-05-25T20:40:37.625Z,58.90
2017-05-25T20:43:04.800Z,59.50
2017-05-25T20:45:31.950Z,59.60
2017-05-25T20:47:59.102Z,59.80
2017-05-25T20:50:26.296Z,59.50
2017-05-25T20:52:53.425Z,60.80
2017-05-25T20:55:20.550Z,60.60
2017-05-25T20:57:47.737Z,61.60
2017-05-25T21:00:14.897Z,62.30
2017-05-25T21:02:42.029Z,61.30
2017-05-25T21:05:09.218Z,61.80
2017-05-25T21:07:36.357Z,62.10
2017-05-25T21:10:04.163Z,61.50
2017-05-25T21:12:31.523Z,62.60
2017-05-25T21:14:58.669Z,62.60
2017-05-25T21:17:26.720Z,62.80
2017-05-25T21:19:53.873Z,62.20
2017-05-25T21:22:21.034Z,62.60
2017-05-25T21:24:48.905Z,62.10
2017-05-25T21:27:16.193Z,62.00
2017-05-25T21:29:43.334Z,62.70
2017-05-25T21:32:10.474Z,62.20
2017-05-25T21:34:37.656Z,61.50
2017-05-25T21:37:04.805Z,61.80
2017-05-25T21:39:31.966Z,62.80
2017-05-25T21:41:59.162Z,63.30
2017-05-25T21:44:26.303Z,64.50
2017-05-25T21:46:53.457Z,63.90
2017-05-25T21:49:20.648Z,63.80
2017-05-25T21:51:47.813Z,64.10
2017-05-25T21:54:14.973Z,63.60
2017-05-25T21:56:42.141Z,65.00
2017-05-25T21:59:09.265Z,64.30
2017-05-25T22:01:36.458Z,65.60
2017-05-25T22:04:03.589Z,66.80
2017-05-25T22:06:30.725Z,65.50
2017-05-25T22:08:57.908Z,66.00
2017-05-25T22:11:25.038Z,65.80
2017-05-25T22:13:52.185Z,66.30
2017-05-25T22:16:19.357Z,65.60
2017-05-25T22:18:46.622Z,66.50
2017-05-25T22:21:13.762Z,66.70
2017-05-25T22:23:40.919Z,67.00
2017-05-25T22:26:08.203Z,67.60
2017-05-25T22:28:35.333Z,66.70
2017-05-25T22:31:17.445Z,66.60
2017-05-25T22:33:44.589Z,66.60
2017-05-25T22:36:11.717Z,65.90
2017-05-25T22:38:39.178Z,65.20
2017-05-25T22:41:06.332Z,65.80
2017-05-25T22:43:33.475Z,66.60
2017-05-25T22:46:00.649Z,66.40
2017-05-25T22:48:27.775Z,66.60
2017-05-25T22:50:54.917Z,66.80
2017-05-25T22:53:22.089Z,68.30
2017-05-25T22:55:49.276Z,67.70
2017-05-25T22:58:16.420Z,67.60
2017-05-25T23:00:43.582Z,69.10
2017-05-25T23:03:10.773Z,69.00
2017-05-25T23:05:37.929Z,69.10
2017-05-25T23:08:05.078Z,69.60
2017-05-25T23:10:32.260Z,69.00
2017-05-25T23:12:59.385Z,68.80
2017-05-25T23:15:26.557Z,69.50
2017-05-25T23:17:53.718Z,69.90
2017-05-25T23:20:20.905Z,70.50
2017-05-25T23:22:48.073Z,70.00
2017-05-25T23:25:15.253Z,70.00
2017-05-25T23:27:42.406Z,69.60
2017-05-25T23:30:09.571Z,70.20
2017-05-25T23:32:36.753Z,70.20
2017-05-25T23:35:03.897Z,69.90
2017-05-25T23:37:31.073Z,70.20
2017-05-25T23:39:58.217Z,68.80
2017-05-25T23:42:25.348Z,69.90
2017-05-25T23:44:52.533Z,69.60
2017-05-25T23:47:19.673Z,70.10
2017-05-25T23:49:46.825Z,70.00
2017-05-25T23:52:13.985Z,69.90
2017-05-25T23:54:41.169Z,69.80
2017-05-25T23:57:08.305Z,70.70
2017-05-25T23:59:35.464Z,71.20
